createdAt,value
2017-08-02T00:02:24.116Z,97.90
2017-08-02T00:04:51.647Z,97.50
2017-08-02T00:07:19.211Z,97.10
2017-08-02T00:09:46.735Z,97.70
2017-08-02T00:12:14.260Z,98.00
2017-08-02T00:14:41.790Z,98.60
2017-08-02T00:17:09.324Z,98.10
2017-08-02T00:19:36.856Z,98.50
2017-08-02T00:22:04.417Z,98.60
2017-08-02T00:24:31.949Z,97.70
2017-08-02T00:26:59.465Z,96.90
2017-08-02T00:29:27.028Z,99.80
2017-08-02T00:31:54.581Z,99.90
2017-08-02T00:34:22.105Z,99.50
2017-08-02T00:36:50.410Z,98.80
2017-08-02T00:39:17.936Z,98.90
2017-08-02T00:41:45.475Z,98.30
2017-08-02T00:44:12.988Z,98.50
2017-08-02T00:46:40.521Z,98.10
2017-08-02T00:49:08.077Z,99.10
2017-08-02T00:51:35.609Z,99.30
2017-08-02T00:54:03.177Z,98.60
2017-08-02T00:56:30.701Z,99.30
2017-08-02T00:58:58.227Z,99.50
2017-08-02T01:01:25.756Z,99.20
2017-08-02T01:03:53.308Z,96.10
2017-08-02T01:06:21.604Z,99.90
2017-08-02T01:08:49.160Z,99.90
2017-08-02T01:11:17.484Z,98.20
2017-08-02T01:13:45.008Z,98.20
2017-08-02T01:16:12.534Z,99.40
2017-08-02T01:18:40.093Z,99.40
2017-08-02T01:21:07.656Z,99.30
2017-08-02T01:23:35.212Z,98.90
2017-08-02T01:26:03.555Z,98.90
2017-08-02T01:28:31.123Z,98.80
2017-08-02T01:30:58.652Z,99.70
2017-08-02T01:33:26.188Z,98.90
2017-08-02T01:35:53.761Z,98.00
2017-08-02T01:38:21.291Z,98.10
2017-08-02T01:40:48.838Z,98.10
2017-08-02T01:43:16.411Z,97.60
2017-08-02T01:45:43.941Z,97.90
2017-08-02T01:48:12.277Z,98.50
2017-08-02T01:50:39.796Z,98.00
2017-08-02T01:53:08.081Z,96.30
2017-08-02T01:55:35.919Z,96.20
2017-08-02T01:58:04.217Z,99.20
2017-08-02T02:00:31.793Z,99.20
2017-08-02T02:02:59.386Z,99.70
2017-08-02T02:05:26.928Z,99.90
2017-08-02T02:07:54.635Z,99.90
2017-08-02T02:10:22.200Z,99.20
2017-08-02T02:12:50.519Z,99.90
2017-08-02T02:15:18.084Z,99.90
2017-08-02T02:17:45.640Z,99.60
2017-08-02T02:20:13.653Z,99.40
2017-08-02T02:22:41.976Z,99.40
2017-08-02T02:25:09.509Z,99.40
2017-08-02T02:27:37.067Z,99.50
2017-08-02T02:30:04.633Z,99.30
2017-08-02T02:32:32.165Z,99.70
2017-08-02T02:34:59.749Z,99.70
2017-08-02T02:37:27.354Z,99.10
2017-08-02T02:39:54.908Z,99.70
2017-08-02T02:42:22.531Z,99.10
2017-08-02T02:44:50.073Z,98.90
2017-08-02T02:47:17.596Z,98.60
2017-08-02T02:49:45.163Z,98.90
2017-08-02T02:52:12.680Z,98.60
2017-08-02T02:54:40.245Z,99.00
2017-08-02T02:57:07.838Z,98.80
2017-08-02T02:59:36.129Z,99.00
2017-08-02T03:02:03.651Z,99.00
2017-08-02T03:04:31.215Z,97.80
2017-08-02T03:06:58.751Z,98.90
2017-08-02T03:09:26.321Z,98.50
2017-08-02T03:11:53.854Z,98.50
2017-08-02T03:14:21.419Z,98.30
2017-08-02T03:16:49.017Z,97.90
2017-08-02T03:19:16.588Z,97.60
2017-08-02T03:21:44.992Z,96.80
2017-08-02T03:24:12.584Z,97.10
2017-08-02T03:26:41.787Z,96.90
2017-08-02T03:29:09.395Z,96.80
2017-08-02T03:31:36.948Z,96.60
2017-08-02T03:34:04.499Z,96.90
2017-08-02T03:36:32.090Z,98.20
2017-08-02T03:38:59.986Z,98.90
2017-08-02T03:41:27.548Z,98.60
2017-08-02T03:43:55.189Z,98.40
2017-08-02T03:46:22.743Z,98.20
2017-08-02T03:48:50.294Z,98.10
2017-08-02T03:51:17.912Z,99.00
2017-08-02T03:53:45.503Z,99.10
2017-08-02T03:56:13.101Z,99.40
2017-08-02T03:58:40.653Z,99.70
2017-08-02T04:01:08.206Z,99.60
2017-08-02T04:03:35.826Z,99.60
2017-08-02T04:06:03.405Z,99.50
2017-08-02T04:08:31.001Z,99.20
2017-08-02T04:10:58.625Z,99.20
2017-08-02T04:13:26.183Z,99.30
2017-08-02T04:15:53.738Z,99.10
2017-08-02T04:18:21.322Z,98.90
2017-08-02T04:20:49.059Z,99.40
2017-08-02T04:23:16.681Z,99.70
2017-08-02T04:25:44.233Z,99.50
2017-08-02T04:28:11.832Z,99.50
2017-08-02T04:30:39.424Z,99.40
2017-08-02T04:33:06.965Z,99.30
2017-08-02T04:35:34.575Z,99.50
2017-08-02T04:38:02.191Z,99.60
2017-08-02T04:40:29.726Z,99.70
2017-08-02T04:42:57.322Z,99.90
2017-08-02T04:45:24.866Z,99.90
2017-08-02T04:47:52.421Z,99.90
2017-08-02T04:50:20.032Z,99.90
2017-08-02T04:52:47.630Z,99.90
2017-08-02T04:55:15.246Z,99.90
2017-08-02T04:57:42.802Z,99.90
2017-08-02T05:00:10.370Z,99.90
2017-08-02T05:02:37.974Z,99.90
2017-08-02T05:05:05.524Z,99.90
2017-08-02T05:07:33.101Z,99.90
2017-08-02T05:10:00.712Z,99.90
2017-08-02T05:12:28.323Z,99.90
2017-08-02T05:14:56.052Z,99.70
2017-08-02T05:17:23.723Z,99.70
2017-08-02T05:19:52.194Z,99.80
2017-08-02T05:22:19.831Z,99.30
2017-08-02T05:24:47.457Z,98.70
2017-08-02T05:27:15.784Z,98.80
2017-08-02T05:29:43.363Z,98.80
2017-08-02T05:32:10.976Z,99.00
2017-08-02T05:34:38.506Z,98.20
2017-08-02T05:37:06.865Z,97.70
2017-08-02T05:39:34.412Z,97.70
2017-08-02T05:42:01.951Z,97.60
2017-08-02T05:44:29.516Z,97.40
2017-08-02T05:46:57.104Z,96.90
2017-08-02T05:49:24.632Z,96.50
2017-08-02T05:51:52.216Z,96.60
2017-08-02T05:54:19.751Z,97.00
2017-08-02T05:56:47.268Z,97.50
2017-08-02T05:59:14.806Z,96.10
2017-08-02T06:01:43.143Z,96.80
2017-08-02T06:04:10.733Z,96.70
2017-08-02T06:06:38.244Z,96.50
2017-08-02T06:09:05.761Z,96.40
2017-08-02T06:11:33.323Z,96.00
2017-08-02T06:14:00.861Z,96.30
2017-08-02T06:16:28.713Z,96.80
2017-08-02T06:18:56.963Z,95.90
2017-08-02T06:21:24.515Z,96.00
2017-08-02T06:23:52.094Z,95.30
2017-08-02T06:26:19.630Z,95.60
2017-08-02T06:28:47.150Z,94.40
2017-08-02T06:31:14.712Z,95.40
2017-08-02T06:33:42.236Z,94.10
2017-08-02T06:36:10.049Z,94.50
2017-08-02T06:38:37.648Z,93.80
2017-08-02T06:41:05.647Z,93.90
2017-08-02T06:43:33.193Z,94.70
2017-08-02T06:46:01.544Z,95.00
2017-08-02T06:48:29.056Z,95.00
2017-08-02T06:50:56.580Z,94.40
2017-08-02T06:53:24.165Z,94.70
2017-08-02T06:55:52.484Z,94.00
2017-08-02T06:58:19.997Z,94.00
2017-08-02T07:00:47.559Z,93.10
2017-08-02T07:03:15.071Z,92.40
2017-08-02T07:05:42.605Z,94.00
2017-08-02T07:08:10.189Z,92.80
2017-08-02T07:10:37.726Z,91.80
2017-08-02T07:13:05.264Z,92.20
2017-08-02T07:15:32.775Z,92.40
2017-08-02T07:18:00.328Z,91.30
2017-08-02T07:20:27.887Z,89.20
2017-08-02T07:22:55.400Z,89.80
2017-08-02T07:25:22.915Z,87.50
2017-08-02T07:27:50.521Z,86.70
2017-08-02T07:30:18.027Z,87.70
2017-08-02T07:32:46.325Z,85.70
2017-08-02T07:35:13.880Z,85.60
2017-08-02T07:37:42.192Z,88.90
2017-08-02T07:40:09.737Z,88.80
2017-08-02T07:42:37.277Z,86.40
2017-08-02T07:45:04.828Z,86.90
2017-08-02T07:47:33.107Z,84.50
2017-08-02T07:50:00.660Z,84.50
2017-08-02T07:52:28.979Z,89.50
2017-08-02T07:54:56.481Z,89.40
2017-08-02T07:57:24.763Z,83.40
2017-08-02T07:59:53.081Z,82.10
2017-08-02T08:02:20.592Z,82.10
2017-08-02T08:04:48.892Z,81.80
2017-08-02T08:07:16.410Z,81.70
2017-08-02T08:09:43.968Z,86.00
2017-08-02T08:12:11.524Z,81.60
2017-08-02T08:14:39.040Z,81.30
2017-08-02T08:17:06.567Z,81.70
2017-08-02T08:19:34.114Z,80.70
2017-08-02T08:22:02.428Z,78.90
2017-08-02T08:24:29.991Z,78.70
2017-08-02T08:26:57.503Z,79.30
2017-08-02T08:29:25.817Z,81.00
2017-08-02T08:31:53.363Z,80.60
2017-08-02T08:34:20.908Z,79.10
2017-08-02T08:36:48.464Z,79.60
2017-08-02T08:39:16.020Z,81.30
2017-08-02T08:41:43.567Z,74.50
2017-08-02T08:44:11.896Z,77.30
2017-08-02T08:46:39.424Z,77.20
2017-08-02T08:49:06.962Z,75.20
2017-08-02T08:51:35.284Z,75.20
2017-08-02T08:54:02.805Z,75.20
2017-08-02T08:56:30.437Z,79.00
2017-08-02T08:58:57.959Z,75.70
2017-08-02T09:01:25.572Z,74.90
2017-08-02T09:03:53.936Z,76.90
2017-08-02T09:06:22.253Z,73.50
2017-08-02T09:08:49.776Z,73.40
2017-08-02T09:11:17.333Z,74.90
2017-08-02T09:13:44.896Z,76.80
2017-08-02T09:16:13.187Z,73.20
2017-08-02T09:18:40.720Z,73.10
2017-08-02T09:21:09.013Z,75.50
2017-08-02T09:23:36.612Z,75.50
2017-08-02T09:26:04.130Z,71.30
2017-08-02T09:28:31.745Z,72.10
2017-08-02T09:30:59.314Z,74.00
2017-08-02T09:33:26.872Z,74.10
2017-08-02T09:35:54.419Z,76.20
2017-08-02T09:38:21.977Z,75.20
2017-08-02T09:40:49.504Z,76.60
2017-08-02T09:43:17.075Z,77.10
2017-08-02T09:45:44.599Z,77.70
2017-08-02T09:48:12.144Z,80.10
2017-08-02T09:50:40.469Z,75.20
2017-08-02T09:53:08.026Z,75.20
2017-08-02T09:55:35.556Z,77.20
2017-08-02T09:58:03.079Z,75.30
2017-08-02T10:00:31.548Z,69.30
2017-08-02T10:02:59.081Z,69.30
2017-08-02T10:05:26.608Z,69.10
2017-08-02T10:07:54.156Z,71.50
2017-08-02T10:10:21.953Z,69.90
2017-08-02T10:12:49.516Z,69.10
2017-08-02T10:15:17.036Z,71.00
2017-08-02T10:17:44.555Z,71.10
2017-08-02T10:20:12.892Z,70.10
2017-08-02T10:22:40.417Z,70.00
2017-08-02T10:25:07.989Z,72.00
2017-08-02T10:27:35.540Z,71.60
2017-08-02T10:30:03.153Z,71.50
2017-08-02T10:32:30.677Z,67.20
2017-08-02T10:34:58.196Z,67.20
2017-08-02T10:37:26.769Z,65.50
2017-08-02T10:39:54.305Z,65.40
2017-08-02T10:42:21.914Z,64.80
2017-08-02T10:44:49.457Z,62.40
2017-08-02T10:47:17.024Z,62.30
2017-08-02T10:49:44.585Z,61.00
2017-08-02T10:52:12.122Z,61.70
2017-08-02T10:54:39.720Z,62.60
2017-08-02T10:57:08.181Z,61.90
2017-08-02T10:59:35.720Z,66.00
2017-08-02T11:02:03.327Z,62.90
2017-08-02T11:04:30.851Z,59.50
2017-08-02T11:06:58.396Z,61.90
2017-08-02T11:09:25.995Z,61.70
2017-08-02T11:11:53.539Z,57.20
2017-08-02T11:14:21.117Z,59.60
2017-08-02T11:16:48.688Z,61.40
2017-08-02T11:19:16.212Z,58.40
2017-08-02T11:21:43.843Z,59.00
2017-08-02T11:24:11.421Z,58.60
2017-08-02T11:26:38.993Z,59.10
2017-08-02T11:29:06.590Z,58.70
2017-08-02T11:31:34.133Z,58.40
2017-08-02T11:34:01.689Z,58.30
2017-08-02T11:36:29.332Z,60.30
2017-08-02T11:38:56.874Z,58.50
2017-08-02T11:41:24.493Z,57.70
2017-08-02T11:43:52.057Z,59.50
2017-08-02T11:46:19.707Z,57.90
2017-08-02T11:48:47.326Z,58.20
2017-08-02T11:51:14.868Z,57.90
2017-08-02T11:53:42.428Z,57.80
2017-08-02T11:56:10.025Z,56.80
2017-08-02T11:58:38.274Z,57.30
2017-08-02T12:01:05.859Z,55.30
2017-08-02T12:03:33.402Z,56.50
2017-08-02T12:06:00.950Z,56.50
2017-08-02T12:08:28.551Z,55.90
2017-08-02T12:10:56.136Z,55.30
2017-08-02T12:13:23.700Z,56.40
2017-08-02T12:15:51.295Z,57.20
2017-08-02T12:18:19.672Z,56.90
2017-08-02T12:20:47.287Z,57.00
2017-08-02T12:23:14.842Z,56.10
2017-08-02T12:25:42.415Z,56.60
2017-08-02T12:28:09.996Z,56.30
2017-08-02T12:30:37.569Z,57.90
2017-08-02T12:33:05.233Z,56.30
2017-08-02T12:35:32.815Z,57.50
2017-08-02T12:38:00.391Z,56.30
2017-08-02T12:40:27.986Z,56.10
2017-08-02T12:42:55.544Z,56.80
2017-08-02T12:45:23.116Z,56.90
2017-08-02T12:47:50.714Z,55.80
2017-08-02T12:50:19.039Z,56.70
2017-08-02T12:52:46.602Z,56.70
2017-08-02T12:55:14.206Z,57.80
2017-08-02T12:57:41.833Z,56.80
2017-08-02T13:00:09.379Z,57.50
2017-08-02T13:02:36.978Z,59.20
2017-08-02T13:05:04.568Z,58.80
2017-08-02T13:07:32.131Z,58.90
2017-08-02T13:09:59.742Z,58.80
2017-08-02T13:12:27.329Z,58.70
2017-08-02T13:14:54.898Z,59.40
2017-08-02T13:17:22.527Z,60.20
2017-08-02T13:19:50.301Z,59.10
2017-08-02T13:22:17.853Z,59.00
2017-08-02T13:24:46.196Z,59.90
2017-08-02T13:27:13.804Z,59.90
2017-08-02T13:29:41.363Z,59.60
2017-08-02T13:32:09.037Z,60.10
2017-08-02T13:34:36.591Z,60.20
2017-08-02T13:37:04.217Z,61.80
2017-08-02T13:39:32.580Z,59.70
2017-08-02T13:42:00.180Z,59.60
2017-08-02T13:44:27.785Z,60.90
2017-08-02T13:46:55.345Z,61.40
2017-08-02T13:49:22.929Z,61.00
2017-08-02T13:51:50.593Z,59.90
2017-08-02T13:54:18.218Z,59.70
2017-08-02T13:56:45.924Z,60.00
2017-08-02T13:59:13.586Z,59.40
2017-08-02T14:01:41.185Z,58.00
2017-08-02T14:04:08.743Z,58.80
2017-08-02T14:06:36.312Z,58.90
2017-08-02T14:09:04.001Z,59.90
2017-08-02T14:11:31.584Z,57.80
2017-08-02T14:13:59.195Z,60.60
2017-08-02T14:16:26.750Z,60.70
2017-08-02T14:18:54.348Z,61.50
2017-08-02T14:21:21.921Z,60.70
2017-08-02T14:23:49.484Z,60.90
2017-08-02T14:26:17.102Z,61.60
2017-08-02T14:28:44.660Z,62.60
2017-08-02T14:31:12.268Z,62.40
2017-08-02T14:33:39.872Z,61.90
2017-08-02T14:36:07.436Z,59.90
2017-08-02T14:38:35.039Z,60.20
2017-08-02T14:41:02.627Z,59.30
2017-08-02T14:43:30.260Z,59.80
2017-08-02T14:45:57.865Z,60.60
2017-08-02T14:48:25.453Z,58.70
2017-08-02T14:50:53.061Z,57.40
2017-08-02T14:53:21.232Z,59.10
2017-08-02T14:55:48.802Z,58.80
2017-08-02T14:58:16.442Z,58.90
2017-08-02T15:00:43.974Z,59.30
2017-08-02T15:03:11.516Z,60.20
2017-08-02T15:05:39.884Z,59.30
2017-08-02T15:08:07.460Z,59.20
2017-08-02T15:10:35.812Z,60.30
2017-08-02T15:13:04.139Z,59.00
2017-08-02T15:15:31.724Z,58.40
2017-08-02T15:17:59.317Z,60.00
2017-08-02T15:20:27.660Z,58.70
2017-08-02T15:22:55.205Z,58.60
2017-08-02T15:25:22.793Z,58.60
2017-08-02T15:27:50.358Z,58.80
2017-08-02T15:30:17.927Z,58.90
2017-08-02T15:32:46.275Z,60.10
2017-08-02T15:35:13.904Z,60.10
2017-08-02T15:37:41.484Z,60.90
2017-08-02T15:40:09.024Z,60.30
2017-08-02T15:42:36.625Z,60.70
2017-08-02T15:45:04.261Z,61.20
2017-08-02T15:47:31.868Z,59.30
2017-08-02T15:49:59.480Z,58.90
2017-08-02T15:52:27.045Z,59.70
2017-08-02T15:54:54.663Z,61.90
2017-08-02T15:57:22.264Z,60.80
2017-08-02T15:59:49.832Z,61.00
2017-08-02T16:02:17.474Z,60.90
2017-08-02T16:04:45.046Z,61.80
2017-08-02T16:07:12.625Z,61.50
2017-08-02T16:09:40.222Z,61.90
2017-08-02T16:12:07.789Z,61.50
2017-08-02T16:14:35.322Z,59.60
2017-08-02T16:17:02.904Z,59.00
2017-08-02T16:19:30.527Z,59.80
2017-08-02T16:21:58.885Z,61.90
2017-08-02T16:24:26.470Z,61.80
2017-08-02T16:26:54.026Z,62.10
2017-08-02T16:29:21.638Z,62.70
2017-08-02T16:31:49.175Z,64.00
2017-08-02T16:34:16.809Z,64.20
2017-08-02T16:36:44.423Z,64.30
2017-08-02T16:39:11.990Z,64.00
2017-08-02T16:41:39.542Z,64.30
2017-08-02T16:44:07.162Z,65.00
2017-08-02T16:46:34.705Z,66.50
2017-08-02T16:49:02.307Z,66.80
2017-08-02T16:51:29.927Z,66.90
2017-08-02T16:53:57.496Z,66.00
2017-08-02T16:56:25.058Z,66.80
2017-08-02T16:58:52.630Z,67.70
2017-08-02T17:01:20.240Z,68.10
2017-08-02T17:03:47.816Z,67.40
2017-08-02T17:06:15.402Z,68.50
2017-08-02T17:08:43.042Z,68.30
2017-08-02T17:11:10.597Z,66.20
2017-08-02T17:13:38.186Z,65.90
2017-08-02T17:16:07.540Z,67.40
2017-08-02T17:18:36.854Z,68.90
2017-08-02T17:21:04.444Z,68.80
2017-08-02T17:23:32.012Z,68.20
2017-08-02T17:25:59.626Z,69.60
2017-08-02T17:28:27.212Z,70.10
2017-08-02T17:30:54.765Z,72.50
2017-08-02T17:33:22.385Z,74.00
2017-08-02T17:35:49.945Z,75.00
2017-08-02T17:38:18.316Z,78.30
2017-08-02T17:40:45.882Z,78.30
2017-08-02T17:43:13.465Z,79.60
2017-08-02T17:45:41.100Z,80.60
2017-08-02T17:48:08.668Z,81.30
2017-08-02T17:50:36.223Z,81.90
2017-08-02T17:53:03.821Z,82.00
2017-08-02T17:55:31.376Z,82.50
2017-08-02T17:57:58.940Z,83.70
2017-08-02T18:00:26.543Z,84.10
2017-08-02T18:02:54.117Z,83.80
2017-08-02T18:05:21.701Z,83.60
2017-08-02T18:07:49.315Z,85.50
2017-08-02T18:10:17.674Z,86.30
2017-08-02T18:12:46.074Z,87.40
2017-08-02T18:15:13.752Z,87.30
2017-08-02T18:17:41.389Z,86.90
2017-08-02T18:20:08.944Z,86.10
2017-08-02T18:22:36.602Z,87.10
2017-08-02T18:25:04.981Z,87.30
2017-08-02T18:27:32.615Z,87.20
2017-08-02T18:30:00.228Z,87.00
2017-08-02T18:32:27.768Z,84.90
2017-08-02T18:34:55.385Z,86.00
2017-08-02T18:37:23.037Z,83.10
2017-08-02T18:39:50.696Z,83.30
2017-08-02T18:42:18.285Z,84.90
2017-08-02T18:44:46.669Z,85.60
2017-08-02T18:47:14.324Z,85.50
2017-08-02T18:49:41.959Z,86.50
2017-08-02T18:52:09.523Z,87.60
2017-08-02T18:54:37.085Z,88.20
2017-08-02T18:57:04.693Z,89.00
2017-08-02T18:59:32.306Z,88.40
2017-08-02T19:01:59.921Z,88.60
2017-08-02T19:04:27.561Z,88.80
2017-08-02T19:06:55.183Z,88.40
2017-08-02T19:09:22.775Z,88.50
2017-08-02T19:11:50.429Z,88.70
2017-08-02T19:14:18.850Z,89.70
2017-08-02T19:16:46.493Z,89.70
2017-08-02T19:19:14.154Z,90.20
2017-08-02T19:21:41.709Z,89.90
2017-08-02T19:24:09.293Z,89.30
2017-08-02T19:26:36.883Z,90.10
2017-08-02T19:29:04.553Z,89.30
2017-08-02T19:31:32.204Z,90.00
2017-08-02T19:33:59.815Z,90.50
2017-08-02T19:36:27.466Z,90.70
2017-08-02T19:38:55.180Z,91.00
2017-08-02T19:41:22.833Z,91.20
2017-08-02T19:43:50.494Z,91.30
2017-08-02T19:46:18.168Z,91.10
2017-08-02T19:48:45.843Z,90.60
2017-08-02T19:51:13.420Z,91.20
2017-08-02T19:53:41.090Z,91.80
2017-08-02T19:56:08.698Z,91.40
2017-08-02T19:58:36.294Z,92.10
2017-08-02T20:01:03.934Z,91.70
2017-08-02T20:03:31.545Z,91.80
2017-08-02T20:05:59.128Z,92.10
2017-08-02T20:08:26.724Z,91.50
2017-08-02T20:10:54.364Z,91.20
2017-08-02T20:13:22.781Z,92.00
2017-08-02T20:15:50.407Z,91.80
2017-08-02T20:18:18.069Z,91.60
2017-08-02T20:20:46.453Z,93.10
2017-08-02T20:23:14.094Z,93.10
2017-08-02T20:25:42.559Z,92.30
2017-08-02T20:28:10.376Z,91.90
2017-08-02T20:30:38.001Z,91.80
2017-08-02T20:33:05.659Z,92.60
2017-08-02T20:35:34.086Z,92.90
2017-08-02T20:38:01.738Z,92.80
2017-08-02T20:40:29.364Z,92.30
2017-08-02T20:42:57.045Z,92.90
2017-08-02T20:45:24.714Z,92.70
2017-08-02T20:47:52.334Z,92.70
2017-08-02T20:50:20.770Z,91.90
2017-08-02T20:52:48.345Z,91.90
2017-08-02T20:55:19.354Z,92.70
2017-08-02T20:57:46.992Z,92.30
2017-08-02T21:00:14.639Z,92.60
2017-08-02T21:02:43.022Z,92.70
2017-08-02T21:05:10.724Z,92.60
2017-08-02T21:07:38.348Z,92.10
2017-08-02T21:10:05.950Z,91.80
2017-08-02T21:12:33.627Z,92.20
2017-08-02T21:15:01.232Z,91.90
2017-08-02T21:17:30.083Z,92.80
2017-08-02T21:19:57.721Z,93.30
2017-08-02T21:22:25.275Z,93.10
2017-08-02T21:24:52.951Z,93.10
2017-08-02T21:27:20.558Z,93.30
2017-08-02T21:29:48.189Z,92.20
2017-08-02T21:32:15.796Z,92.90
2017-08-02T21:34:43.452Z,93.20
2017-08-02T21:37:10.998Z,93.80
2017-08-02T21:39:38.637Z,93.80
2017-08-02T21:42:06.972Z,94.30
2017-08-02T21:44:34.576Z,94.30
2017-08-02T21:47:02.223Z,93.80
2017-08-02T21:49:29.870Z,93.80
2017-08-02T21:51:57.502Z,93.70
2017-08-02T21:54:25.104Z,93.80
2017-08-02T21:56:53.504Z,93.50
2017-08-02T21:59:21.092Z,93.40
2017-08-02T22:01:48.694Z,93.40
2017-08-02T22:04:16.305Z,94.20
2017-08-02T22:06:43.937Z,94.00
2017-08-02T22:09:11.553Z,94.30
2017-08-02T22:11:39.192Z,94.20
2017-08-02T22:14:06.828Z,94.30
2017-08-02T22:16:34.420Z,94.00
2017-08-02T22:19:02.053Z,93.70
2017-08-02T22:21:29.656Z,93.70
2017-08-02T22:23:57.217Z,93.70
2017-08-02T22:26:24.789Z,93.80
2017-08-02T22:28:53.193Z,94.50
2017-08-02T22:31:20.792Z,94.40
2017-08-02T22:33:48.428Z,93.90
2017-08-02T22:36:16.025Z,93.50
2017-08-02T22:38:43.592Z,93.50
2017-08-02T22:41:11.174Z,93.80
2017-08-02T22:43:39.563Z,93.60
2017-08-02T22:46:07.942Z,93.50
2017-08-02T22:48:35.515Z,93.40
2017-08-02T22:51:03.135Z,93.30
2017-08-02T22:53:31.486Z,93.80
2017-08-02T22:55:59.085Z,93.80
2017-08-02T22:58:26.711Z,92.70
2017-08-02T23:00:54.367Z,94.10
2017-08-02T23:03:21.953Z,94.20
2017-08-02T23:05:49.590Z,93.60
2017-08-02T23:08:17.192Z,93.90
2017-08-02T23:10:44.791Z,93.70
2017-08-02T23:13:12.445Z,94.00
2017-08-02T23:15:40.060Z,94.20
2017-08-02T23:18:07.693Z,93.20
2017-08-02T23:20:35.324Z,93.60
2017-08-02T23:23:02.920Z,93.90
2017-08-02T23:25:30.482Z,93.00
2017-08-02T23:27:58.094Z,92.50
2017-08-02T23:30:25.680Z,92.70
2017-08-02T23:32:53.303Z,92.60
2017-08-02T23:35:20.939Z,92.70
2017-08-02T23:37:48.521Z,92.10
2017-08-02T23:40:16.098Z,93.00
2017-08-02T23:42:43.709Z,92.80
2017-08-02T23:45:11.314Z,92.30
2017-08-02T23:47:38.962Z,92.50
2017-08-02T23:50:06.593Z,92.40
2017-08-02T23:52:34.193Z,91.90
2017-08-02T23:55:01.821Z,92.10
2017-08-02T23:57:29.495Z,91.80
2017-08-02T23:59:57.086Z,91.90
